createdAt,value
2023-12-11T00:01:50.034Z,98860.06
2023-12-11T00:04:20.673Z,98858.72
2023-12-11T00:06:51.377Z,98872.06
2023-12-11T00:09:21.726Z,98872.16
2023-12-11T00:11:54.802Z,98879.44
2023-12-11T00:14:25.188Z,98875.25
2023-12-11T00:16:55.988Z,98880.06
2023-12-11T00:19:26.490Z,98883.66
2023-12-11T00:21:58.051Z,98891.66
2023-12-11T00:24:28.398Z,98890.00
2023-12-11T00:27:01.346Z,98889.66
2023-12-11T00:29:31.760Z,98891.56
2023-12-11T00:32:02.133Z,98891.81
2023-12-11T00:34:32.535Z,98894.44
2023-12-11T00:37:03.065Z,98903.19
2023-12-11T00:39:33.678Z,98912.41
2023-12-11T00:42:07.206Z,98917.69
2023-12-11T00:44:40.161Z,98924.03
2023-12-11T00:47:11.923Z,98922.09
2023-12-11T00:49:42.571Z,98923.88
2023-12-11T00:52:13.159Z,98929.16
2023-12-11T00:54:43.440Z,98937.28
2023-12-11T00:57:16.570Z,98931.09
2023-12-11T00:59:47.212Z,98940.78
2023-12-11T01:02:18.816Z,98946.19
2023-12-11T01:04:49.211Z,98945.34
2023-12-11T01:07:19.655Z,98944.47
2023-12-11T01:09:49.931Z,98956.09
2023-12-11T01:12:22.866Z,98960.53
2023-12-11T01:14:53.180Z,98961.59
2023-12-11T01:17:37.899Z,98962.44
2023-12-11T01:20:12.083Z,98967.72
2023-12-11T01:22:42.888Z,98972.97
2023-12-11T01:25:13.434Z,98968.78
2023-12-11T01:27:46.479Z,98979.41
2023-12-11T01:30:16.986Z,98983.75
2023-12-11T01:32:47.431Z,98982.91
2023-12-11T01:35:18.176Z,98985.66
2023-12-11T01:37:48.508Z,98993.66
2023-12-11T01:40:19.005Z,98992.00
2023-12-11T01:42:54.145Z,99014.16
2023-12-11T01:45:29.052Z,99015.09
2023-12-11T01:47:59.478Z,99026.56
2023-12-11T01:50:29.834Z,99021.31
2023-12-11T01:53:00.505Z,99022.28
2023-12-11T01:55:32.111Z,99031.13
2023-12-11T01:58:06.763Z,99038.09
2023-12-11T02:00:37.134Z,99037.38
2023-12-11T02:03:07.581Z,99045.38
2023-12-11T02:05:37.957Z,99042.84
2023-12-11T02:08:08.647Z,99055.19
2023-12-11T02:10:40.017Z,99056.13
2023-12-11T02:13:14.413Z,99063.94
2023-12-11T02:15:45.875Z,99072.78
2023-12-11T02:18:18.097Z,99076.34
2023-12-11T02:20:49.347Z,99083.44
2023-12-11T02:23:25.494Z,99089.53
2023-12-11T02:26:07.898Z,99088.81
2023-12-11T02:28:38.405Z,99093.22
2023-12-11T02:31:09.755Z,99093.22
2023-12-11T02:33:40.328Z,99108.09
2023-12-11T02:36:11.599Z,99103.88
2023-12-11T02:38:41.569Z,99115.28
2023-12-11T02:41:14.622Z,99120.63
2023-12-11T02:43:45.816Z,99118.00
2023-12-11T02:46:15.920Z,99125.09
2023-12-11T02:48:46.457Z,99126.97
2023-12-11T02:51:18.899Z,99138.34
2023-12-11T02:53:49.637Z,99140.25
2023-12-11T02:56:22.539Z,99146.25
2023-12-11T02:58:52.885Z,99141.91
2023-12-11T03:01:23.700Z,99145.41
2023-12-11T03:03:54.158Z,99149.81
2023-12-11T03:06:24.655Z,99164.81
2023-12-11T03:08:55.014Z,99160.47
2023-12-11T03:11:27.856Z,99171.00
2023-12-11T03:13:58.168Z,99170.16
2023-12-11T03:16:28.521Z,99179.03
2023-12-11T03:18:58.923Z,99179.03
2023-12-11T03:21:29.254Z,99174.59
2023-12-11T03:23:59.623Z,99189.56
2023-12-11T03:26:32.558Z,99193.16
2023-12-11T03:29:02.847Z,99191.44
2023-12-11T03:31:33.125Z,99198.41
2023-12-11T03:34:03.486Z,99202.84
2023-12-11T03:36:33.892Z,99207.25
2023-12-11T03:39:04.680Z,99201.97
2023-12-11T03:41:37.593Z,99215.06
2023-12-11T03:44:08.505Z,99215.16
2023-12-11T03:46:38.779Z,99219.47
2023-12-11T03:49:09.098Z,99224.75
2023-12-11T03:51:39.530Z,99230.97
2023-12-11T03:54:09.873Z,99230.97
2023-12-11T03:56:43.655Z,99230.22
2023-12-11T03:59:14.050Z,99241.63
2023-12-11T04:01:46.693Z,99237.19
2023-12-11T04:04:17.113Z,99243.31
2023-12-11T04:06:47.534Z,99249.41
2023-12-11T04:09:17.860Z,99262.56
2023-12-11T04:11:51.385Z,99259.94
2023-12-11T04:14:21.641Z,99259.94
2023-12-11T04:16:51.928Z,99267.00
2023-12-11T04:19:22.356Z,99268.81
2023-12-11T04:21:52.693Z,99267.94
2023-12-11T04:24:23.012Z,99272.38
2023-12-11T04:26:55.882Z,99281.13
2023-12-11T04:29:26.169Z,99278.50
2023-12-11T04:31:56.386Z,99280.28
2023-12-11T04:34:26.732Z,99283.63
2023-12-11T04:36:57.070Z,99294.16
2023-12-11T04:39:27.388Z,99298.72
2023-12-11T04:42:00.248Z,99295.13
2023-12-11T04:44:30.634Z,99303.97
2023-12-11T04:47:00.858Z,99309.25
2023-12-11T04:49:31.199Z,99313.66
2023-12-11T04:52:01.575Z,99312.84
2023-12-11T04:54:32.083Z,99316.41
2023-12-11T04:57:05.133Z,99326.94
2023-12-11T04:59:35.367Z,99325.25
2023-12-11T05:02:05.685Z,99334.84
2023-12-11T05:04:35.959Z,99353.28
2023-12-11T05:07:07.809Z,99347.16
2023-12-11T05:09:38.443Z,99355.94
2023-12-11T05:12:12.242Z,99356.00
2023-12-11T05:14:42.495Z,99351.78
2023-12-11T05:17:12.795Z,99364.88
2023-12-11T05:19:43.380Z,99366.53
2023-12-11T05:22:13.780Z,99367.41
2023-12-11T05:24:44.168Z,99371.81
2023-12-11T05:27:17.076Z,99370.47
2023-12-11T05:29:47.349Z,99374.69
2023-12-11T05:32:17.997Z,99371.31
2023-12-11T05:34:48.462Z,99372.69
2023-12-11T05:37:18.793Z,99382.13
2023-12-11T05:39:57.674Z,99383.84
2023-12-11T05:42:41.947Z,99388.38
2023-12-11T05:45:13.512Z,99390.38
2023-12-11T05:47:43.848Z,99396.47
2023-12-11T05:50:15.287Z,99406.91
2023-12-11T05:52:45.926Z,99405.97
2023-12-11T05:55:16.524Z,99410.19
2023-12-11T05:57:49.537Z,99421.38
2023-12-11T06:00:20.993Z,99424.94
2023-12-11T06:02:51.302Z,99429.16
2023-12-11T06:05:21.620Z,99430.44
2023-12-11T06:07:51.952Z,99422.78
2023-12-11T06:10:22.442Z,99419.41
2023-12-11T06:12:55.545Z,99428.50
2023-12-11T06:15:26.176Z,99422.78
2023-12-11T06:17:56.629Z,99428.59
2023-12-11T06:20:27.110Z,99433.44
2023-12-11T06:22:57.390Z,99436.19
2023-12-11T06:25:27.628Z,99433.34
2023-12-11T06:28:00.884Z,99446.09
2023-12-11T06:30:31.201Z,99451.06
2023-12-11T06:33:01.624Z,99450.75
2023-12-11T06:35:31.977Z,99456.66
2023-12-11T06:38:02.424Z,99458.81
2023-12-11T06:40:32.843Z,99463.75
2023-12-11T06:43:06.861Z,99481.78
2023-12-11T06:45:39.250Z,99479.44
2023-12-11T06:48:10.610Z,99479.75
2023-12-11T06:50:42.536Z,99492.50
2023-12-11T06:53:13.266Z,99487.66
2023-12-11T06:55:44.035Z,99488.72
2023-12-11T06:58:17.125Z,99489.78
2023-12-11T07:00:47.641Z,99501.25
2023-12-11T07:03:18.033Z,99508.97
2023-12-11T07:05:51.527Z,99513.91
2023-12-11T07:08:22.665Z,99510.63
2023-12-11T07:10:54.502Z,99523.09
2023-12-11T07:13:27.887Z,99526.69
2023-12-11T07:15:58.407Z,99531.97
2023-12-11T07:18:29.528Z,99533.84
2023-12-11T07:21:00.213Z,99538.25
2023-12-11T07:23:30.840Z,99537.44
2023-12-11T07:26:01.379Z,99546.72
2023-12-11T07:28:34.405Z,99553.06
2023-12-11T07:31:05.753Z,99561.91
2023-12-11T07:33:36.838Z,99556.63
2023-12-11T07:36:07.329Z,99557.81
2023-12-11T07:38:37.653Z,99562.97
2023-12-11T07:41:08.941Z,99565.28
2023-12-11T07:43:41.555Z,99569.06
2023-12-11T07:46:12.517Z,99572.00
2023-12-11T07:48:43.360Z,99587.19
2023-12-11T07:51:21.574Z,99589.28
2023-12-11T07:53:52.233Z,99591.25
2023-12-11T07:56:23.366Z,99593.91
2023-12-11T07:58:56.903Z,99595.78
2023-12-11T08:01:27.379Z,99598.50
2023-12-11T08:03:59.402Z,99603.97
2023-12-11T08:06:30.294Z,99605.88
2023-12-11T08:09:01.715Z,99616.41
2023-12-11T08:11:32.119Z,99613.91
2023-12-11T08:14:05.444Z,99621.88
2023-12-11T08:16:36.079Z,99632.41
2023-12-11T08:19:06.640Z,99630.75
2023-12-11T08:21:37.264Z,99634.31
2023-12-11T08:24:08.542Z,99638.09
2023-12-11T08:26:38.580Z,99639.97
2023-12-11T08:29:11.820Z,99644.59
2023-12-11T08:31:42.293Z,99659.56
2023-12-11T08:34:13.055Z,99658.81
2023-12-11T08:36:43.644Z,99659.75
2023-12-11T08:39:14.307Z,99669.56
2023-12-11T08:41:45.108Z,99680.09
2023-12-11T08:44:18.300Z,99679.31
2023-12-11T08:46:48.921Z,99683.75
2023-12-11T08:49:19.544Z,99685.63
2023-12-11T08:51:50.069Z,99687.44
2023-12-11T08:54:20.803Z,99687.50
2023-12-11T08:56:51.320Z,99692.78
2023-12-11T08:59:24.999Z,99701.66
2023-12-11T09:01:55.712Z,99712.25
2023-12-11T09:04:27.134Z,99707.00
2023-12-11T09:06:57.663Z,99707.94
2023-12-11T09:09:28.388Z,99720.34
2023-12-11T09:11:58.970Z,99728.25
2023-12-11T09:14:32.017Z,99729.03
2023-12-11T09:17:02.646Z,99736.16
2023-12-11T09:19:44.081Z,99737.00
2023-12-11T09:22:19.734Z,99751.03
2023-12-11T09:24:50.195Z,99747.53
2023-12-11T09:27:20.761Z,99757.22
2023-12-11T09:29:54.403Z,99752.91
2023-12-11T09:32:25.241Z,99750.47
2023-12-11T09:34:56.100Z,99755.56
2023-12-11T09:37:27.259Z,99761.84
2023-12-11T09:39:57.962Z,99773.41
2023-12-11T09:42:28.948Z,99776.06
2023-12-11T09:45:03.174Z,99780.53
2023-12-11T09:47:39.491Z,99786.59
2023-12-11T09:50:12.107Z,99790.91
2023-12-11T09:52:44.364Z,99799.75
2023-12-11T09:55:16.989Z,99803.41
2023-12-11T09:57:51.067Z,99816.56
2023-12-11T10:00:24.580Z,99822.03
2023-12-11T10:02:56.220Z,99815.91
2023-12-11T10:05:30.800Z,99815.91
2023-12-11T10:08:02.563Z,99829.16
2023-12-11T10:10:35.588Z,99840.56
2023-12-11T10:13:07.449Z,99839.81
2023-12-11T10:15:41.105Z,99843.28
2023-12-11T10:18:13.537Z,99849.59
2023-12-11T10:20:46.868Z,99854.84
2023-12-11T10:23:20.129Z,99854.84
2023-12-11T10:25:52.571Z,99852.22
2023-12-11T10:28:24.698Z,99863.69
2023-12-11T10:31:01.175Z,99869.13
2023-12-11T10:33:35.369Z,99869.88
2023-12-11T10:36:18.900Z,99874.22
2023-12-11T10:38:49.825Z,99872.50
2023-12-11T10:41:31.181Z,99869.97
2023-12-11T10:44:12.607Z,99870.81
2023-12-11T10:46:50.942Z,99874.38
2023-12-11T10:49:22.221Z,99876.16
2023-12-11T10:51:54.189Z,99874.38
2023-12-11T10:54:25.053Z,99873.63
2023-12-11T10:56:58.202Z,99882.38
2023-12-11T10:59:29.014Z,99880.69
2023-12-11T11:02:03.701Z,99880.69
2023-12-11T11:04:38.093Z,99885.09
2023-12-11T11:07:15.794Z,99883.41
2023-12-11T11:09:58.776Z,99880.84
2023-12-11T11:12:44.040Z,99885.25
2023-12-11T11:15:15.378Z,99877.38
2023-12-11T11:18:05.613Z,99873.91
2023-12-11T11:20:38.015Z,99872.19
2023-12-11T11:23:28.601Z,99883.66
2023-12-11T11:25:59.695Z,99878.31
2023-12-11T11:28:43.234Z,99887.16
2023-12-11T11:31:23.296Z,99889.03
2023-12-11T11:34:00.778Z,99880.19
2023-12-11T11:36:50.481Z,99890.72
2023-12-11T11:39:21.109Z,99884.69
2023-12-11T11:41:51.860Z,99885.63
2023-12-11T11:44:23.942Z,99890.91
2023-12-11T11:47:00.652Z,99891.75
2023-12-11T11:49:38.675Z,99895.31
2023-12-11T11:52:11.105Z,99894.47
2023-12-11T11:54:44.319Z,99908.59
2023-12-11T11:57:16.400Z,99910.25
2023-12-11T11:59:47.195Z,99908.59
2023-12-11T12:02:25.538Z,99904.25
2023-12-11T12:04:58.778Z,99907.72
2023-12-11T12:07:29.930Z,99905.16
2023-12-11T12:10:01.367Z,99905.16
2023-12-11T12:12:32.428Z,99909.50
2023-12-11T12:15:09.158Z,99908.75
2023-12-11T12:17:40.723Z,99913.16
2023-12-11T12:20:18.857Z,99925.47
2023-12-11T12:23:02.206Z,99930.75
2023-12-11T12:25:33.481Z,99923.75
2023-12-11T12:28:06.976Z,99909.84
2023-12-11T12:30:40.603Z,99920.38
2023-12-11T12:33:14.835Z,99926.59
2023-12-11T12:35:50.473Z,99925.56
2023-12-11T12:38:23.238Z,99932.63
2023-12-11T12:40:55.186Z,99937.94
2023-12-11T12:43:28.614Z,99936.16
2023-12-11T12:46:04.535Z,99940.59
2023-12-11T12:48:35.113Z,99940.69
2023-12-11T12:51:13.572Z,99930.16
2023-12-11T12:53:50.910Z,99930.16
2023-12-11T12:56:23.775Z,99933.63
2023-12-11T12:58:55.735Z,99935.41
2023-12-11T13:01:26.472Z,99940.69
2023-12-11T13:04:03.965Z,99943.31
2023-12-11T13:06:37.279Z,99944.22
2023-12-11T13:09:11.085Z,99949.50
2023-12-11T13:11:47.003Z,99946.03
2023-12-11T13:14:20.409Z,99944.22
2023-12-11T13:16:51.374Z,99943.41
2023-12-11T13:19:22.252Z,99946.03
2023-12-11T13:21:55.899Z,99955.72
2023-12-11T13:24:26.619Z,99954.00
2023-12-11T13:26:59.330Z,99961.91
2023-12-11T13:29:30.058Z,99958.41
2023-12-11T13:32:01.449Z,99963.69
2023-12-11T13:34:32.157Z,99969.03
2023-12-11T13:37:05.442Z,99968.19
2023-12-11T13:39:36.658Z,99972.59
2023-12-11T13:42:07.882Z,99974.47
2023-12-11T13:44:38.094Z,99972.59
2023-12-11T13:47:09.620Z,99979.63
2023-12-11T13:49:40.566Z,99977.97
2023-12-11T13:52:14.400Z,99988.50
2023-12-11T13:54:45.017Z,99979.75
2023-12-11T13:57:15.708Z,99972.75
2023-12-11T13:59:46.194Z,99974.47
2023-12-11T14:02:16.918Z,99982.50
2023-12-11T14:05:08.535Z,99974.59
2023-12-11T14:07:41.775Z,99971.06
2023-12-11T14:10:13.197Z,99974.59
2023-12-11T14:12:44.934Z,99977.19
2023-12-11T14:15:15.554Z,99974.59
2023-12-11T14:17:46.134Z,99973.75
2023-12-11T14:20:17.154Z,99982.50
2023-12-11T14:22:50.379Z,99979.97
2023-12-11T14:25:21.064Z,99986.06
2023-12-11T14:27:51.590Z,99987.00
2023-12-11T14:30:22.598Z,99981.75
2023-12-11T14:32:53.932Z,99988.78
2023-12-11T14:35:24.912Z,99992.28
2023-12-11T14:37:58.084Z,99997.59
2023-12-11T14:40:29.280Z,99999.41
2023-12-11T14:43:01.323Z,100004.75
2023-12-11T14:45:32.023Z,100003.88
2023-12-11T14:48:02.577Z,100008.22
2023-12-11T14:50:33.220Z,100014.41
2023-12-11T14:53:06.262Z,100011.78
2023-12-11T14:55:43.699Z,100018.00
2023-12-11T14:58:14.953Z,100010.09
2023-12-11T15:00:45.790Z,100006.72
2023-12-11T15:03:16.409Z,100004.06
2023-12-11T15:05:46.945Z,100007.53
2023-12-11T15:08:20.394Z,100005.00
2023-12-11T15:10:51.166Z,100010.31
2023-12-11T15:13:21.721Z,100011.19
2023-12-11T15:15:52.550Z,100020.84
2023-12-11T15:18:23.319Z,100022.66
2023-12-11T15:20:54.062Z,100013.97
2023-12-11T15:23:27.353Z,100017.56
2023-12-11T15:25:58.619Z,100013.97
2023-12-11T15:28:28.919Z,100016.72
2023-12-11T15:31:12.810Z,100019.44
2023-12-11T15:33:45.172Z,100023.84
2023-12-11T15:36:19.741Z,100029.09
2023-12-11T15:38:53.142Z,100028.25
2023-12-11T15:41:23.783Z,100033.50
2023-12-11T15:43:55.429Z,100036.13
2023-12-11T15:46:26.539Z,100029.16
2023-12-11T15:48:56.952Z,100029.97
2023-12-11T15:51:28.136Z,100029.84
2023-12-11T15:54:02.513Z,100031.72
2023-12-11T15:56:33.836Z,100029.97
2023-12-11T15:59:04.442Z,100028.25
2023-12-11T16:01:35.686Z,100027.31
2023-12-11T16:04:07.520Z,100033.50
2023-12-11T16:06:38.116Z,100048.38
2023-12-11T16:09:12.384Z,100039.63
2023-12-11T16:11:43.560Z,100041.41
2023-12-11T16:14:14.179Z,100033.56
2023-12-11T16:16:46.251Z,100036.19
2023-12-11T16:19:20.693Z,100052.00
2023-12-11T16:21:52.625Z,100046.81
2023-12-11T16:24:26.441Z,100055.56
2023-12-11T16:26:57.431Z,100055.56
2023-12-11T16:29:28.566Z,100063.53
2023-12-11T16:31:59.541Z,100066.16
2023-12-11T16:34:33.174Z,100063.53
2023-12-11T16:37:04.128Z,100063.63
2023-12-11T16:39:37.965Z,100062.75
2023-12-11T16:42:12.543Z,100060.13
2023-12-11T16:44:44.379Z,100071.63
2023-12-11T16:47:17.533Z,100075.91
2023-12-11T16:49:57.141Z,100075.06
2023-12-11T16:52:38.217Z,100082.97
2023-12-11T16:55:12.810Z,100089.06
2023-12-11T16:57:44.315Z,100079.50
2023-12-11T17:00:16.892Z,100083.06
2023-12-11T17:02:47.958Z,100083.81
2023-12-11T17:05:19.141Z,100081.13
2023-12-11T17:07:49.759Z,100069.75
2023-12-11T17:10:23.170Z,100066.16
2023-12-11T17:12:54.153Z,100066.25
2023-12-11T17:15:25.245Z,100071.25
2023-12-11T17:17:55.883Z,100073.13
2023-12-11T17:20:27.384Z,100079.66
2023-12-11T17:22:57.923Z,100067.38
2023-12-11T17:25:31.796Z,100066.50
2023-12-11T17:28:05.443Z,100065.56
2023-12-11T17:30:36.524Z,100064.72
2023-12-11T17:33:10.223Z,100062.94
2023-12-11T17:35:41.142Z,100065.41
2023-12-11T17:38:11.842Z,100063.63
2023-12-11T17:40:45.294Z,100069.66
2023-12-11T17:43:16.253Z,100068.72
2023-12-11T17:45:47.437Z,100060.91
2023-12-11T17:48:21.771Z,100067.97
2023-12-11T17:50:52.731Z,100063.53
2023-12-11T17:53:23.414Z,100074.84
2023-12-11T17:55:56.417Z,100070.41
2023-12-11T17:58:27.337Z,100071.88
2023-12-11T18:00:58.556Z,100081.38
2023-12-11T18:03:31.354Z,100078.53
2023-12-11T18:06:02.965Z,100071.38
2023-12-11T18:08:34.280Z,100077.56
2023-12-11T18:11:09.243Z,100071.53
2023-12-11T18:13:41.642Z,100073.41
2023-12-11T18:16:15.595Z,100072.50
2023-12-11T18:18:46.617Z,100068.00
2023-12-11T18:21:18.240Z,100063.50
2023-12-11T18:23:53.020Z,100060.69
2023-12-11T18:26:26.683Z,100051.78
2023-12-11T18:28:59.277Z,100055.97
2023-12-11T18:31:30.562Z,100057.44
2023-12-11T18:34:02.326Z,100056.84
2023-12-11T18:36:34.146Z,100063.31
2023-12-11T18:39:07.107Z,100065.53
2023-12-11T18:41:40.573Z,100073.94
2023-12-11T18:44:11.398Z,100078.00
2023-12-11T18:46:42.420Z,100067.31
2023-12-11T18:49:14.155Z,100072.06
2023-12-11T18:51:45.328Z,100070.03
2023-12-11T18:54:16.987Z,100076.91
2023-12-11T18:56:50.033Z,100073.25
2023-12-11T18:59:23.794Z,100079.09
2023-12-11T19:01:54.650Z,100085.88
2023-12-11T19:04:26.665Z,100077.97
2023-12-11T19:06:57.704Z,100079.84
2023-12-11T19:09:28.294Z,100085.72
2023-12-11T19:12:03.502Z,100081.59
2023-12-11T19:14:37.255Z,100081.72
2023-12-11T19:17:09.375Z,100083.97
2023-12-11T19:19:47.841Z,100080.53
2023-12-11T19:22:26.613Z,100078.66
2023-12-11T19:24:58.497Z,100065.63
2023-12-11T19:27:33.044Z,100067.53
2023-12-11T19:30:05.328Z,100073.00
2023-12-11T19:32:37.619Z,100070.63
2023-12-11T19:35:10.952Z,100069.56
2023-12-11T19:37:42.765Z,100076.81
2023-12-11T19:40:14.251Z,100080.69
2023-12-11T19:42:48.684Z,100076.31
2023-12-11T19:45:19.484Z,100079.53
2023-12-11T19:47:51.749Z,100081.00
2023-12-11T19:50:22.627Z,100087.19
2023-12-11T19:52:53.596Z,100083.22
2023-12-11T19:55:24.502Z,100082.03
2023-12-11T19:57:58.272Z,100083.56
2023-12-11T20:00:29.668Z,100077.28
2023-12-11T20:03:00.980Z,100075.44
2023-12-11T20:05:34.754Z,100079.00
2023-12-11T20:08:06.093Z,100073.59
2023-12-11T20:10:36.931Z,100076.16
2023-12-11T20:13:10.800Z,100075.63
2023-12-11T20:15:41.978Z,100070.84
2023-12-11T20:18:15.963Z,100067.75
2023-12-11T20:20:49.624Z,100068.41
2023-12-11T20:23:20.217Z,100067.88
2023-12-11T20:25:50.858Z,100061.88
2023-12-11T20:28:24.706Z,100060.97
2023-12-11T20:30:58.608Z,100053.88
2023-12-11T20:33:30.496Z,100052.84
2023-12-11T20:36:02.442Z,100053.69
2023-12-11T20:38:36.446Z,100060.03
2023-12-11T20:41:07.493Z,100071.41
2023-12-11T20:43:41.248Z,100068.22
2023-12-11T20:46:14.575Z,100076.47
2023-12-11T20:48:49.899Z,100079.66
2023-12-11T20:51:25.386Z,100066.06
2023-12-11T20:53:57.507Z,100063.72
2023-12-11T20:56:36.197Z,100067.66
2023-12-11T20:59:10.632Z,100066.25
2023-12-11T21:01:43.636Z,100063.25
2023-12-11T21:04:16.965Z,100065.47
2023-12-11T21:06:48.640Z,100065.25
2023-12-11T21:09:22.747Z,100070.41
2023-12-11T21:11:56.596Z,100071.56
2023-12-11T21:14:40.306Z,100077.38
2023-12-11T21:17:13.584Z,100069.44
2023-12-11T21:19:46.807Z,100066.84
2023-12-11T21:22:18.952Z,100067.16
2023-12-11T21:24:50.337Z,100059.34
2023-12-11T21:27:21.255Z,100053.72
2023-12-11T21:29:58.164Z,100052.75
2023-12-11T21:32:32.553Z,100047.22
2023-12-11T21:35:04.280Z,100053.16
2023-12-11T21:37:35.657Z,100057.78
2023-12-11T21:40:07.587Z,100046.53
2023-12-11T21:42:39.033Z,100041.41
2023-12-11T21:45:13.899Z,100040.69
2023-12-11T21:47:45.778Z,100033.44
2023-12-11T21:50:17.137Z,100032.59
2023-12-11T21:52:48.645Z,100033.56
2023-12-11T21:55:19.598Z,100027.88
2023-12-11T21:57:51.730Z,100031.38
2023-12-11T22:00:25.375Z,100024.34
2023-12-11T22:03:00.781Z,100018.53
2023-12-11T22:05:31.297Z,100022.91
2023-12-11T22:08:02.354Z,100027.47
2023-12-11T22:10:33.879Z,100024.13
2023-12-11T22:13:05.182Z,100026.78
2023-12-11T22:15:38.785Z,100024.16
2023-12-11T22:18:10.846Z,100026.22
2023-12-11T22:20:43.416Z,100021.34
2023-12-11T22:23:14.388Z,100025.28
2023-12-11T22:25:45.203Z,100026.34
2023-12-11T22:28:15.874Z,100014.38
2023-12-11T22:30:49.500Z,100008.56
2023-12-11T22:33:20.246Z,100020.22
2023-12-11T22:35:51.274Z,100014.94
2023-12-11T22:38:21.942Z,100005.53
2023-12-11T22:40:52.776Z,100005.84
2023-12-11T22:43:23.275Z,100008.78
2023-12-11T22:45:56.600Z,100008.34
2023-12-11T22:48:27.903Z,100006.03
2023-12-11T22:50:58.564Z,100008.28
2023-12-11T22:53:29.133Z,99994.59
2023-12-11T22:55:59.914Z,100005.59
2023-12-11T22:58:30.499Z,99996.09
2023-12-11T23:01:03.746Z,99995.47
2023-12-11T23:03:34.285Z,99995.88
2023-12-11T23:06:04.817Z,99987.41
2023-12-11T23:08:36.133Z,99991.41
2023-12-11T23:11:06.802Z,99993.31
2023-12-11T23:13:37.643Z,99985.69
2023-12-11T23:16:12.421Z,99993.09
2023-12-11T23:18:43.266Z,99992.66
2023-12-11T23:21:21.164Z,99986.22
2023-12-11T23:23:51.821Z,99982.91
2023-12-11T23:26:23.297Z,99976.34
2023-12-11T23:28:55.643Z,99981.00
2023-12-11T23:31:29.591Z,99976.97
2023-12-11T23:34:00.581Z,99978.31
2023-12-11T23:36:31.154Z,99970.97
2023-12-11T23:39:01.496Z,99981.00
2023-12-11T23:41:31.989Z,99980.44
2023-12-11T23:44:02.504Z,99974.63
2023-12-11T23:46:35.732Z,99985.56
2023-12-11T23:49:06.428Z,99979.75
2023-12-11T23:51:37.039Z,99975.78
2023-12-11T23:54:07.702Z,99967.31
2023-12-11T23:56:38.208Z,99965.72
2023-12-11T23:59:10.196Z,99969.59
